Time;durP1;ratioP1;P1;durP2;ratioP2;P2;SDS_P1;SDS_P2;PMS_P1;PMS_P2;Temp;Humidity;BMP_temperature;BMP_pressure;BME280_temperature;BME280_humidity;BME280_pressure;Samples;Min_cycle;Max_cycle;Signal;HPM_P1;HPM_P2
2023/01/09 00:01:26;;;;;;;2.85;1.00;;;14.10;99.90;;;;;;5029745;28;20220;-76
2023/01/09 00:03:52;;;;;;;4.07;1.10;;;13.90;99.90;;;;;;5070499;28;20032;-76
2023/01/09 00:06:18;;;;;;;2.53;0.90;;;13.90;99.90;;;;;;5092572;28;20493;-76
2023/01/09 00:08:44;;;;;;;3.55;1.20;;;13.90;99.90;;;;;;5083632;28;20036;-77
2023/01/09 00:11:10;;;;;;;2.90;0.90;;;13.90;99.90;;;;;;5091654;27;20083;-76
2023/01/09 00:13:37;;;;;;;4.20;0.98;;;13.90;99.90;;;;;;5071761;28;20045;-76
2023/01/09 00:16:07;;;;;;;2.88;0.80;;;13.90;99.90;;;;;;5061567;28;20029;-76
2023/01/09 00:18:34;;;;;;;3.55;0.95;;;13.90;99.90;;;;;;5061279;28;20561;-75
2023/01/09 00:21:00;;;;;;;;;;;14.10;99.90;;;;;;5071577;28;20032;-77
2023/01/09 00:23:27;;;;;;;3.75;1.20;;;14.10;99.90;;;;;;5053101;28;20256;-76
2023/01/09 00:26:13;;;;;;;2.65;0.80;;;14.00;99.90;;;;;;5054281;28;21648;-76
2023/01/09 00:28:40;;;;;;;4.25;1.10;;;13.90;99.90;;;;;;5077960;28;20078;-75
2023/01/09 00:31:07;;;;;;;;;;;14.00;99.90;;;;;;5081443;28;20064;-75
2023/01/09 00:33:47;;;;;;;4.93;1.02;;;14.00;99.90;;;;;;5080492;28;19912;-75
2023/01/09 00:36:12;;;;;;;2.22;0.77;;;13.90;99.90;;;;;;5081691;28;20399;-75
2023/01/09 00:38:39;;;;;;;2.50;0.90;;;14.00;99.90;;;;;;5083512;28;20185;-76
2023/01/09 00:41:07;;;;;;;;;;;14.00;99.90;;;;;;5081826;28;20038;-76
2023/01/09 00:43:44;;;;;;;3.22;0.73;;;13.90;99.90;;;;;;5063128;28;19916;-75
2023/01/09 00:46:12;;;;;;;3.03;0.93;;;13.70;99.90;;;;;;5081845;28;20391;-76
2023/01/09 00:48:41;;;;;;;2.95;1.20;;;13.80;99.90;;;;;;5083518;28;20486;-75
2023/01/09 00:51:07;;;;;;;6.78;1.00;;;13.70;99.90;;;;;;5081471;28;20043;-75
2023/01/09 00:53:36;;;;;;;2.67;0.95;;;13.60;99.90;;;;;;5075517;28;20585;-75
2023/01/09 00:56:06;;;;;;;2.67;0.98;;;13.50;99.90;;;;;;5078802;28;20024;-75
2023/01/09 00:58:33;;;;;;;3.15;0.73;;;13.40;99.90;;;;;;5075616;28;20039;-75
2023/01/09 01:01:00;;;;;;;2.80;0.93;;;13.40;99.90;;;;;;5078101;28;20040;-76
2023/01/09 01:03:26;;;;;;;2.75;1.38;;;13.30;99.90;;;;;;5077511;28;20036;-74
2023/01/09 01:08:36;;;;;;;2.35;0.80;;;13.30;99.90;;;;;;5079452;28;20043;-76
2023/01/09 01:11:11;;;;;;;1.98;0.60;;;13.30;99.90;;;;;;5082853;28;20037;-75
2023/01/09 01:13:39;;;;;;;2.75;1.10;;;13.30;99.90;;;;;;5059006;28;20029;-74
2023/01/09 01:16:10;;;;;;;2.17;0.73;;;13.50;99.90;;;;;;5054020;28;20052;-74
2023/01/09 01:18:36;;;;;;;3.00;1.00;;;13.50;99.90;;;;;;5062867;28;20960;-75
2023/01/09 01:21:11;;;;;;;2.80;0.70;;;13.40;99.90;;;;;;5057031;28;20043;-76
2023/01/09 01:23:37;;;;;;;1.90;0.80;;;13.30;99.90;;;;;;5061591;28;20637;-77
2023/01/09 01:26:12;;;;;;;2.80;0.80;;;13.20;99.90;;;;;;5069001;28;20392;-75
2023/01/09 01:28:38;;;;;;;2.33;0.80;;;13.20;99.90;;;;;;5059390;28;20392;-75
2023/01/09 01:31:05;;;;;;;2.58;0.80;;;13.40;99.90;;;;;;5064808;28;20078;-75
2023/01/09 01:33:31;;;;;;;2.72;0.90;;;13.50;99.90;;;;;;5075394;28;20028;-76
2023/01/09 01:36:02;;;;;;;2.72;0.70;;;13.50;99.90;;;;;;5091160;27;20041;-75
2023/01/09 01:38:28;;;;;;;2.28;0.70;;;13.50;99.90;;;;;;5092256;28;20040;-75
2023/01/09 01:40:55;;;;;;;3.17;0.70;;;13.70;99.90;;;;;;5098800;27;20904;-75
2023/01/09 01:43:21;;;;;;;3.10;0.75;;;14.10;99.90;;;;;;5078967;28;20024;-75
2023/01/09 01:45:47;;;;;;;2.40;0.70;;;14.30;99.90;;;;;;5078876;28;20077;-75
2023/01/09 01:48:27;;;;;;;2.03;0.68;;;14.10;99.90;;;;;;5077726;28;20040;-75
2023/01/09 01:51:02;;;;;;;2.25;0.60;;;14.50;99.90;;;;;;5078705;28;20032;-76
2023/01/09 01:53:33;;;;;;;2.10;0.70;;;14.60;99.90;;;;;;5088176;28;20046;-75
2023/01/09 01:56:35;;;;;;;1.38;0.70;;;14.70;99.90;;;;;;5067098;28;20032;-75
2023/01/09 01:59:17;;;;;;;1.48;0.43;;;14.50;99.90;;;;;;5077199;28;20093;-76
2023/01/09 02:01:45;;;;;;;2.25;0.70;;;14.60;99.90;;;;;;5068374;28;20047;-75
2023/01/09 02:04:11;;;;;;;2.30;0.60;;;14.60;99.90;;;;;;5058466;28;20041;-75
2023/01/09 02:06:40;;;;;;;1.83;0.50;;;14.80;99.90;;;;;;5058468;28;20036;-74
2023/01/09 02:09:07;;;;;;;1.27;0.60;;;14.70;99.90;;;;;;5055900;28;20491;-77
2023/01/09 02:11:33;;;;;;;2.08;0.70;;;14.70;99.90;;;;;;5081682;28;20033;-76
2023/01/09 02:14:01;;;;;;;1.40;0.40;;;14.90;99.90;;;;;;5073020;27;20070;-75
2023/01/09 02:16:51;;;;;;;1.75;0.60;;;14.80;99.90;;;;;;5073604;28;20057;-75
2023/01/09 02:19:19;;;;;;;2.22;0.52;;;14.80;99.90;;;;;;5054415;28;20044;-76
2023/01/09 02:22:10;;;;;;;1.85;0.40;;;14.90;99.90;;;;;;5058631;28;20033;-76
2023/01/09 02:25:05;;;;;;;1.23;0.28;;;14.90;99.90;;;;;;5074016;28;20108;-75
2023/01/09 02:27:36;;;;;;;0.73;0.32;;;14.90;99.90;;;;;;5055208;28;20508;-75
2023/01/09 02:30:45;;;;;;;1.13;0.57;;;14.90;99.90;;;;;;5065880;28;21011;-75
2023/01/09 02:33:52;;;;;;;2.05;0.35;;;15.00;99.90;;;;;;5025975;28;20057;-75
2023/01/09 02:36:33;;;;;;;2.15;0.50;;;14.90;99.90;;;;;;5011143;28;20480;-75
2023/01/09 02:39:10;;;;;;;2.35;0.90;;;14.80;99.90;;;;;;5056204;28;20073;-75
2023/01/09 02:41:46;;;;;;;1.52;0.43;;;14.90;99.90;;;;;;5069127;28;20036;-75
2023/01/09 02:44:27;;;;;;;1.70;0.60;;;14.90;99.90;;;;;;5074981;28;20353;-75
2023/01/09 02:47:13;;;;;;;3.15;0.68;;;14.90;99.90;;;;;;5079253;28;20028;-75
2023/01/09 02:49:41;;;;;;;2.03;0.60;;;14.70;99.90;;;;;;5074117;28;20043;-74
2023/01/09 02:52:44;;;;;;;1.80;0.50;;;14.70;99.90;;;;;;5071910;28;20040;-75
2023/01/09 02:55:38;;;;;;;2.35;0.65;;;14.60;99.90;;;;;;5093085;28;20033;-75
2023/01/09 02:58:33;;;;;;;3.13;0.50;;;14.60;99.90;;;;;;5081373;28;20131;-75
2023/01/09 03:01:03;;;;;;;2.03;0.82;;;14.40;99.90;;;;;;5078153;28;20016;-75
2023/01/09 03:03:44;;;;;;;2.17;0.70;;;14.20;99.90;;;;;;5082751;28;20119;-75
2023/01/09 03:06:20;;;;;;;2.17;0.75;;;14.20;99.90;;;;;;5095529;27;20041;-75
2023/01/09 03:08:52;;;;;;;2.50;0.50;;;14.10;99.90;;;;;;5081528;28;20039;-76
2023/01/09 03:11:20;;;;;;;1.98;0.63;;;14.10;99.90;;;;;;5081131;28;20499;-75
2023/01/09 03:13:52;;;;;;;2.22;0.75;;;14.20;99.90;;;;;;5086686;28;20028;-75
2023/01/09 03:16:27;;;;;;;2.13;0.70;;;14.40;99.90;;;;;;5081049;28;20501;-76
2023/01/09 03:18:55;;;;;;;2.25;0.65;;;14.50;99.90;;;;;;5082001;28;20040;-74
2023/01/09 03:21:22;;;;;;;2.67;0.52;;;14.40;99.90;;;;;;5081433;28;20101;-75
2023/01/09 03:23:53;;;;;;;;;;;14.40;99.90;;;;;;5064905;28;20514;-76
2023/01/09 03:26:19;;;;;;;1.77;0.50;;;14.30;99.90;;;;;;5085558;28;19936;-75
2023/01/09 03:28:46;;;;;;;2.67;0.80;;;14.30;99.90;;;;;;5095726;28;20487;-75
2023/01/09 03:31:12;;;;;;;2.30;0.55;;;14.10;99.90;;;;;;5091519;28;20032;-76
2023/01/09 03:33:39;;;;;;;2.35;0.60;;;14.00;99.90;;;;;;5080584;28;20028;-76
2023/01/09 03:36:05;;;;;;;1.50;0.55;;;14.10;99.90;;;;;;5080426;28;20032;-75
2023/01/09 03:38:32;;;;;;;;;;;14.00;99.90;;;;;;5095139;27;20044;-75
2023/01/09 03:40:58;;;;;;;1.52;0.80;;;14.10;99.90;;;;;;5081520;28;19916;-75
2023/01/09 03:43:24;;;;;;;1.85;0.50;;;14.00;99.90;;;;;;5083810;28;20037;-76
2023/01/09 03:45:50;;;;;;;0.77;0.35;;;13.90;99.90;;;;;;5097157;28;20032;-76
2023/01/09 03:48:16;;;;;;;1.33;0.52;;;13.90;99.90;;;;;;5080841;28;20460;-75
2023/01/09 03:50:44;;;;;;;2.28;0.82;;;14.00;99.90;;;;;;5088126;28;20035;-75
2023/01/09 03:53:12;;;;;;;1.60;0.60;;;13.90;99.90;;;;;;5085248;28;20085;-75
2023/01/09 03:55:39;;;;;;;1.85;0.60;;;13.80;99.90;;;;;;5078634;28;20032;-76
2023/01/09 03:58:05;;;;;;;1.10;0.40;;;13.90;99.90;;;;;;5079888;28;20036;-75
2023/01/09 04:00:31;;;;;;;1.70;0.47;;;13.90;99.90;;;;;;5082045;28;20984;-76
2023/01/09 04:02:56;;;;;;;1.88;0.45;;;13.90;99.90;;;;;;5084310;28;20032;-75
2023/01/09 04:05:24;;;;;;;1.80;0.50;;;13.80;99.90;;;;;;5080302;28;21534;-76
2023/01/09 04:07:50;;;;;;;2.08;0.82;;;13.70;99.90;;;;;;5084665;28;20046;-75
2023/01/09 04:10:16;;;;;;;2.40;0.70;;;13.60;99.90;;;;;;5081476;28;20115;-76
2023/01/09 04:12:42;;;;;;;3.08;0.50;;;13.60;99.90;;;;;;5083872;28;20032;-76
2023/01/09 04:15:08;;;;;;;2.80;1.05;;;13.60;99.90;;;;;;5079017;28;20774;-75
2023/01/09 04:17:34;;;;;;;2.60;0.80;;;13.50;99.90;;;;;;5079945;28;20383;-75
2023/01/09 04:20:00;;;;;;;2.35;0.65;;;13.40;99.90;;;;;;5086527;28;20024;-76
2023/01/09 04:22:26;;;;;;;2.70;1.35;;;13.30;99.90;;;;;;5082811;28;20485;-76
2023/01/09 04:24:52;;;;;;;2.78;0.80;;;13.20;99.90;;;;;;5082381;28;20064;-75
2023/01/09 04:27:18;;;;;;;4.38;0.90;;;13.10;99.90;;;;;;5098615;28;20116;-75
2023/01/09 04:29:44;;;;;;;2.17;0.75;;;13.10;99.90;;;;;;5086075;28;20048;-74
2023/01/09 04:32:10;;;;;;;2.78;0.60;;;13.20;99.90;;;;;;5078955;28;20064;-75
2023/01/09 04:34:36;;;;;;;1.30;0.52;;;13.20;99.90;;;;;;5081438;28;20101;-75
2023/01/09 04:37:02;;;;;;;1.77;0.60;;;13.10;99.90;;;;;;5078164;28;20028;-75
2023/01/09 04:39:28;;;;;;;1.20;0.40;;;13.10;99.90;;;;;;5075787;28;20039;-75
2023/01/09 04:41:53;;;;;;;1.20;0.50;;;13.20;99.90;;;;;;5082463;28;20527;-75
2023/01/09 04:44:25;;;;;;;1.80;0.40;;;13.30;99.90;;;;;;5094230;27;20074;-76
2023/01/09 04:46:51;;;;;;;1.13;0.40;;;13.20;99.90;;;;;;5076729;28;20035;-75
2023/01/09 04:49:17;;;;;;;1.52;0.40;;;13.10;99.90;;;;;;5083318;28;20063;-76
2023/01/09 04:51:43;;;;;;;1.70;0.40;;;13.00;99.90;;;;;;5080012;28;20041;-75
2023/01/09 04:54:10;;;;;;;1.52;0.50;;;12.90;99.90;;;;;;5083197;28;20438;-75
2023/01/09 04:56:36;;;;;;;1.50;0.43;;;12.80;99.90;;;;;;5093649;28;20036;-75
2023/01/09 04:59:03;;;;;;;3.25;0.65;;;12.60;99.90;;;;;;5085037;28;20046;-76
2023/01/09 05:01:29;;;;;;;2.05;0.50;;;12.60;99.90;;;;;;5086701;28;20028;-76
2023/01/09 05:03:55;;;;;;;1.35;0.32;;;12.70;99.90;;;;;;5060818;28;20986;-75
2023/01/09 05:06:21;;;;;;;1.10;0.60;;;12.60;99.90;;;;;;5080150;28;20399;-75
2023/01/09 05:08:47;;;;;;;1.25;0.40;;;13.10;99.90;;;;;;5078638;28;20038;-76
2023/01/09 05:11:13;;;;;;;1.10;0.40;;;13.10;99.90;;;;;;5092569;27;20058;-74
2023/01/09 05:13:39;;;;;;;1.50;0.50;;;13.50;99.90;;;;;;5093985;28;20039;-75
2023/01/09 05:16:05;;;;;;;2.20;0.70;;;13.40;99.90;;;;;;5075219;28;20436;-76
2023/01/09 05:18:31;;;;;;;1.88;0.50;;;13.30;99.90;;;;;;5078074;28;20083;-76
2023/01/09 05:20:57;;;;;;;1.65;0.50;;;13.10;99.90;;;;;;5080681;28;20064;-76
2023/01/09 05:23:23;;;;;;;2.03;0.45;;;12.90;99.90;;;;;;5081154;28;20090;-75
2023/01/09 05:25:49;;;;;;;1.30;0.40;;;12.90;99.90;;;;;;5076964;28;20036;-75
2023/01/09 05:28:15;;;;;;;1.30;0.60;;;13.20;99.90;;;;;;5074956;28;20419;-75
2023/01/09 05:30:41;;;;;;;1.38;0.50;;;13.10;99.90;;;;;;5080686;28;20092;-76
2023/01/09 05:33:07;;;;;;;1.63;0.68;;;13.00;99.90;;;;;;5055597;27;20980;-74
2023/01/09 05:35:33;;;;;;;0.98;0.30;;;12.90;99.90;;;;;;5087290;28;20039;-75
2023/01/09 05:37:59;;;;;;;0.57;0.20;;;12.80;99.90;;;;;;5076052;28;20035;-76
2023/01/09 05:40:25;;;;;;;2.33;0.50;;;13.20;99.50;;;;;;5058252;28;20036;-76
2023/01/09 05:42:50;;;;;;;0.85;0.30;;;13.40;99.00;;;;;;5058882;28;20081;-75
2023/01/09 05:45:16;;;;;;;3.17;0.50;;;13.20;99.30;;;;;;5069753;28;20034;-76
2023/01/09 05:47:45;;;;;;;0.47;0.08;;;13.20;99.40;;;;;;5089384;28;20601;-76
2023/01/09 05:50:12;;;;;;;1.05;0.20;;;13.70;98.20;;;;;;5074634;28;20032;-75
2023/01/09 05:52:38;;;;;;;0.47;0.22;;;13.90;97.40;;;;;;5082084;28;20033;-76
2023/01/09 05:55:06;;;;;;;0.60;0.10;;;14.20;96.50;;;;;;5046630;28;20036;-75
2023/01/09 05:57:32;;;;;;;0.82;0.17;;;14.30;96.00;;;;;;5074848;28;20044;-76
2023/01/09 05:59:58;;;;;;;2.40;0.20;;;14.20;96.20;;;;;;5091646;27;20085;-75
2023/01/09 06:02:23;;;;;;;2.33;0.20;;;14.20;96.20;;;;;;5080145;28;20724;-76
2023/01/09 06:04:49;;;;;;;0.70;0.20;;;13.90;96.50;;;;;;5094729;28;20024;-74
2023/01/09 06:07:15;;;;;;;0.95;0.32;;;13.70;97.00;;;;;;5077074;28;20043;-76
2023/01/09 06:09:41;;;;;;;0.75;0.20;;;13.50;97.50;;;;;;5090348;28;20503;-76
2023/01/09 06:12:07;;;;;;;0.80;0.22;;;13.40;97.90;;;;;;5081353;28;20179;-76
2023/01/09 06:14:33;;;;;;;0.68;0.20;;;13.70;97.70;;;;;;5084755;28;20032;-76
2023/01/09 06:16:59;;;;;;;1.00;0.22;;;13.60;97.70;;;;;;5081502;28;20031;-76
2023/01/09 06:19:25;;;;;;;0.57;0.20;;;13.40;98.20;;;;;;5078774;28;20044;-77
2023/01/09 06:21:52;;;;;;;0.98;0.15;;;13.40;98.20;;;;;;5081870;28;20395;-76
2023/01/09 06:24:18;;;;;;;1.02;0.20;;;13.40;98.30;;;;;;5075467;28;20036;-77
2023/01/09 06:26:44;;;;;;;1.08;0.30;;;13.20;98.50;;;;;;5069928;28;20047;-77
2023/01/09 06:29:11;;;;;;;0.77;0.35;;;13.00;98.90;;;;;;5081021;28;20032;-76
2023/01/09 06:31:37;;;;;;;1.02;0.30;;;13.00;98.90;;;;;;5084569;28;20056;-74
2023/01/09 06:34:03;;;;;;;0.93;0.38;;;13.00;98.90;;;;;;5077624;28;20574;-76
2023/01/09 06:36:29;;;;;;;0.98;0.50;;;13.10;98.70;;;;;;5072352;28;20123;-74
2023/01/09 06:38:55;;;;;;;1.60;0.20;;;13.10;98.80;;;;;;5092789;28;20050;-76
2023/01/09 06:41:20;;;;;;;0.40;0.20;;;13.20;98.70;;;;;;5082101;28;20106;-75
2023/01/09 06:43:46;;;;;;;0.98;0.20;;;13.10;98.80;;;;;;5083385;28;20056;-75
2023/01/09 06:46:12;;;;;;;1.52;0.40;;;13.00;98.90;;;;;;5084006;28;20024;-75
2023/01/09 06:48:38;;;;;;;1.63;0.25;;;13.00;99.00;;;;;;5060515;28;20048;-76
2023/01/09 06:51:04;;;;;;;1.30;0.32;;;12.90;99.20;;;;;;5063609;28;20127;-75
2023/01/09 06:53:30;;;;;;;1.27;0.40;;;12.80;99.50;;;;;;5075587;28;20119;-76
2023/01/09 06:55:56;;;;;;;1.02;0.32;;;12.90;99.40;;;;;;5067235;28;20092;-75
2023/01/09 06:58:22;;;;;;;1.52;0.40;;;12.90;99.40;;;;;;5055343;28;20051;-76
2023/01/09 07:00:48;;;;;;;0.82;0.30;;;12.70;99.60;;;;;;5069876;28;20043;-75
2023/01/09 07:03:18;;;;;;;1.00;0.30;;;12.60;99.90;;;;;;5062064;28;20045;-74
2023/01/09 07:05:45;;;;;;;1.13;0.40;;;12.50;99.90;;;;;;5076243;28;20041;-76
2023/01/09 07:08:10;;;;;;;0.68;0.22;;;12.70;99.80;;;;;;5066173;28;20479;-75
2023/01/09 07:10:36;;;;;;;1.15;0.50;;;12.60;99.80;;;;;;5069739;28;20044;-75
2023/01/09 07:13:02;;;;;;;0.85;0.20;;;12.80;99.40;;;;;;5061851;28;20365;-75
2023/01/09 07:15:28;;;;;;;0.55;0.20;;;12.60;99.60;;;;;;5068718;28;20029;-75
2023/01/09 07:17:54;;;;;;;1.20;0.40;;;12.70;99.70;;;;;;5071403;28;20233;-76
2023/01/09 07:20:20;;;;;;;1.00;0.30;;;12.60;99.60;;;;;;5067996;28;20485;-76
2023/01/09 07:22:46;;;;;;;0.98;0.32;;;12.60;99.50;;;;;;5069938;28;20025;-75
2023/01/09 07:25:13;;;;;;;1.52;0.45;;;12.50;99.60;;;;;;5067954;28;20120;-74
2023/01/09 07:27:38;;;;;;;1.20;0.40;;;12.50;99.70;;;;;;5093695;27;20492;-75
2023/01/09 07:30:06;;;;;;;0.73;0.30;;;12.50;99.70;;;;;;5060274;28;20051;-75
2023/01/09 07:32:32;;;;;;;1.98;0.50;;;12.50;99.70;;;;;;5080380;27;20050;-75
2023/01/09 07:34:58;;;;;;;1.05;0.52;;;12.30;99.90;;;;;;5075656;28;20040;-75
2023/01/09 07:37:24;;;;;;;1.50;0.50;;;12.30;99.90;;;;;;5087772;28;20040;-76
2023/01/09 07:39:50;;;;;;;1.17;0.40;;;12.20;99.90;;;;;;5076644;28;20036;-76
2023/01/09 07:42:17;;;;;;;1.63;0.47;;;12.30;99.90;;;;;;5082341;28;20412;-74
2023/01/09 07:44:43;;;;;;;0.95;0.30;;;12.10;99.90;;;;;;5074162;28;20052;-76
2023/01/09 07:47:09;;;;;;;2.05;0.50;;;12.10;99.90;;;;;;5077609;28;20029;-75
2023/01/09 07:49:35;;;;;;;1.38;0.30;;;12.10;99.90;;;;;;5083842;28;20082;-76
2023/01/09 07:52:01;;;;;;;1.23;0.40;;;12.10;99.90;;;;;;5055823;28;20123;-78
2023/01/09 07:54:26;;;;;;;1.38;0.50;;;12.10;99.90;;;;;;5070619;28;20536;-75
2023/01/09 07:56:52;;;;;;;2.95;0.50;;;12.00;99.90;;;;;;5079446;27;20066;-76
2023/01/09 07:59:18;;;;;;;1.55;0.55;;;12.00;99.90;;;;;;5082755;28;20152;-76
2023/01/09 08:01:44;;;;;;;1.20;0.40;;;12.10;99.90;;;;;;5065098;28;20028;-75
2023/01/09 08:04:12;;;;;;;3.13;0.43;;;12.20;99.90;;;;;;5075384;28;20043;-75
2023/01/09 08:06:38;;;;;;;1.45;0.40;;;12.10;99.90;;;;;;5093538;28;20032;-76
2023/01/09 08:09:04;;;;;;;1.58;0.77;;;12.10;99.90;;;;;;5078217;28;20553;-76
2023/01/09 08:11:31;;;;;;;1.73;0.40;;;12.10;99.90;;;;;;5070813;28;20040;-75
2023/01/09 08:13:57;;;;;;;;;;;12.10;99.90;;;;;;5087248;27;20068;-75
2023/01/09 08:16:22;;;;;;;1.98;0.52;;;12.10;99.90;;;;;;5059037;28;19924;-75
2023/01/09 08:18:49;;;;;;;2.53;0.52;;;12.20;99.90;;;;;;5086470;28;20043;-75
2023/01/09 08:21:15;;;;;;;;;;;12.20;99.90;;;;;;5062039;28;20039;-76
2023/01/09 08:23:41;;;;;;;2.58;0.82;;;12.20;99.90;;;;;;5075183;28;20012;-77
2023/01/09 08:26:07;;;;;;;1.15;0.38;;;12.40;99.90;;;;;;5080229;28;20032;-76
2023/01/09 08:28:32;;;;;;;1.83;0.50;;;12.40;99.50;;;;;;5052172;28;20037;-75
2023/01/09 08:30:58;;;;;;;3.00;0.63;;;12.30;99.90;;;;;;5073475;28;20532;-75
2023/01/09 08:33:25;;;;;;;3.10;0.80;;;12.60;99.90;;;;;;5070600;28;20028;-76
2023/01/09 08:35:51;;;;;;;2.10;0.70;;;14.40;98.50;;;;;;5073127;28;20043;-77
2023/01/09 08:38:17;;;;;;;2.50;0.98;;;15.50;97.00;;;;;;5076827;28;20040;-77
2023/01/09 08:40:46;;;;;;;2.75;0.85;;;15.50;96.10;;;;;;5079496;28;20081;-76
2023/01/09 08:47:04;;;;;;;4.32;0.70;;;16.40;94.80;;;;;;5077606;28;20051;-76
2023/01/09 08:48:44;;;;;;;4.80;0.73;;;16.40;95.20;;;;;;5066758;28;20534;-77
2023/01/09 08:51:10;;;;;;;2.15;0.80;;;16.60;94.80;;;;;;5079303;28;20102;-76
2023/01/09 08:53:36;;;;;;;1.90;0.50;;;16.90;94.80;;;;;;5081435;28;20479;-76
2023/01/09 08:56:02;;;;;;;3.55;0.88;;;16.40;94.40;;;;;;5066228;28;20040;-76
2023/01/09 08:58:29;;;;;;;1.95;0.60;;;16.60;94.90;;;;;;5067538;28;20707;-77
2023/01/09 09:00:55;;;;;;;1.83;0.57;;;16.00;94.90;;;;;;5094099;28;20060;-77
2023/01/09 09:03:21;;;;;;;2.13;0.55;;;14.70;95.90;;;;;;5069224;28;20445;-75
2023/01/09 09:05:47;;;;;;;1.70;0.50;;;14.20;96.50;;;;;;5086552;28;20116;-77
2023/01/09 09:08:14;;;;;;;1.70;0.52;;;13.80;96.70;;;;;;5071969;28;20127;-77
2023/01/09 09:10:40;;;;;;;1.13;0.40;;;13.90;96.90;;;;;;5092712;28;20043;-76
2023/01/09 09:13:06;;;;;;;1.20;0.40;;;13.90;97.10;;;;;;5077179;28;20448;-76
2023/01/09 09:15:33;;;;;;;2.42;0.60;;;13.80;97.20;;;;;;5080132;28;20028;-76
2023/01/09 09:18:05;;;;;;;1.40;0.38;;;13.90;97.10;;;;;;5064965;28;20175;-77
2023/01/09 09:20:35;;;;;;;0.90;0.30;;;14.10;96.90;;;;;;5065542;28;20059;-77
2023/01/09 09:23:02;;;;;;;2.00;0.50;;;13.80;96.80;;;;;;5062614;28;20038;-77
2023/01/09 09:25:28;;;;;;;1.35;0.50;;;14.00;96.80;;;;;;5056381;28;20041;-76
2023/01/09 09:27:55;;;;;;;1.77;0.63;;;13.90;96.70;;;;;;5060146;28;20087;-77
2023/01/09 09:30:22;;;;;;;1.77;0.52;;;14.00;96.70;;;;;;5068124;28;20508;-76
2023/01/09 09:32:48;;;;;;;2.33;0.93;;;13.90;96.50;;;;;;5049459;28;20040;-77
2023/01/09 09:35:19;;;;;;;1.33;0.47;;;13.90;96.50;;;;;;5061842;28;20484;-75
2023/01/09 09:37:57;;;;;;;1.80;0.50;;;14.30;96.40;;;;;;5042879;28;20041;-76
2023/01/09 09:40:56;;;;;;;1.48;0.57;;;14.60;96.10;;;;;;5055892;28;20120;-76
2023/01/09 09:47:10;;;;;;;2.30;0.88;;;15.10;95.30;;;;;;5071788;28;20078;-76
2023/01/09 09:50:07;;;;;;;1.45;0.43;;;14.90;95.40;;;;;;5074616;28;20024;-77
2023/01/09 09:52:50;;;;;;;1.85;1.00;;;14.90;95.40;;;;;;5062585;28;20411;-77
2023/01/09 09:55:38;;;;;;;1.88;0.60;;;14.80;95.40;;;;;;5092222;27;20093;-76
2023/01/09 09:58:24;;;;;;;1.88;0.52;;;15.00;95.40;;;;;;5078352;28;20078;-75
2023/01/09 10:00:51;;;;;;;3.20;0.52;;;15.10;95.30;;;;;;5061604;28;20114;-76
2023/01/09 10:03:44;;;;;;;3.03;0.63;;;15.00;95.20;;;;;;5063132;28;20497;-77
2023/01/09 10:06:25;;;;;;;2.17;0.60;;;15.10;95.10;;;;;;5051323;28;20072;-76
2023/01/09 10:09:20;;;;;;;2.97;0.70;;;14.90;94.90;;;;;;5076745;28;20043;-77
2023/01/09 10:12:02;;;;;;;3.58;0.80;;;15.10;94.90;;;;;;5076614;28;20503;-77
2023/01/09 10:14:29;;;;;;;3.63;0.90;;;15.40;94.70;;;;;;5070642;28;20472;-77
2023/01/09 10:17:11;;;;;;;2.95;0.77;;;15.30;94.70;;;;;;5071024;28;20033;-76
2023/01/09 10:19:49;;;;;;;1.70;0.57;;;15.20;94.60;;;;;;5071564;28;20534;-78
2023/01/09 10:22:25;;;;;;;2.97;0.93;;;15.50;94.50;;;;;;5067835;28;20033;-77
2023/01/09 10:24:56;;;;;;;2.67;0.70;;;15.50;94.30;;;;;;5076470;28;20513;-77
2023/01/09 10:27:34;;;;;;;2.75;0.98;;;15.60;94.20;;;;;;5105346;27;20044;-76
2023/01/09 10:30:23;;;;;;;1.80;0.73;;;15.60;94.20;;;;;;5079557;28;20035;-76
2023/01/09 10:33:12;;;;;;;4.57;0.70;;;15.90;93.90;;;;;;5034783;28;20090;-75
2023/01/09 10:36:04;;;;;;;10.07;1.58;;;15.80;93.70;;;;;;5078676;28;20540;-76
2023/01/09 10:38:38;;;;;;;3.22;0.70;;;16.30;93.80;;;;;;5048988;28;20669;-76
2023/01/09 10:41:09;;;;;;;4.78;0.85;;;16.90;93.20;;;;;;5077261;28;20035;-77
2023/01/09 10:44:03;;;;;;;2.40;0.82;;;17.20;93.00;;;;;;5076956;28;20048;-75
2023/01/09 10:46:46;;;;;;;4.03;1.02;;;17.30;92.50;;;;;;5066225;28;20102;-76
2023/01/09 10:49:16;;;;;;;2.00;0.52;;;17.80;92.40;;;;;;5060953;28;20044;-76
2023/01/09 10:51:47;;;;;;;5.13;0.73;;;18.50;91.70;;;;;;5084068;28;20141;-76
2023/01/09 10:54:22;;;;;;;3.22;0.93;;;18.50;91.10;;;;;;5078349;28;20062;-78
2023/01/09 10:57:03;;;;;;;2.95;0.88;;;17.90;91.40;;;;;;5056753;28;20033;-77
2023/01/09 10:59:29;;;;;;;2.25;0.93;;;17.20;91.80;;;;;;5068305;28;20044;-76
2023/01/09 11:01:55;;;;;;;5.00;0.85;;;17.40;91.30;;;;;;5081109;28;20132;-76
2023/01/09 11:04:24;;;;;;;3.35;0.68;;;17.40;90.80;;;;;;5061787;28;20044;-76
2023/01/09 11:06:55;;;;;;;3.50;0.90;;;18.20;90.90;;;;;;5070789;28;20058;-76
2023/01/09 11:09:21;;;;;;;3.08;0.70;;;17.80;90.50;;;;;;5070994;28;20131;-76
2023/01/09 11:11:47;;;;;;;2.10;0.93;;;18.10;90.40;;;;;;5054189;28;20633;-76
2023/01/09 11:14:14;;;;;;;2.30;0.75;;;17.60;90.60;;;;;;5060747;28;20085;-76
2023/01/09 11:17:02;;;;;;;3.28;0.88;;;18.10;90.30;;;;;;5056170;28;20049;-77
2023/01/09 11:19:30;;;;;;;2.15;0.77;;;18.80;89.50;;;;;;5067169;28;20056;-76
2023/01/09 11:22:08;;;;;;;3.00;0.82;;;18.70;88.90;;;;;;5076224;28;20047;-77
2023/01/09 11:24:33;;;;;;;4.13;1.00;;;18.30;89.50;;;;;;5073459;28;20039;-76
2023/01/09 11:27:22;;;;;;;6.50;1.23;;;19.00;88.90;;;;;;5076726;28;20593;-76
2023/01/09 11:30:06;;;;;;;3.58;1.00;;;18.70;87.40;;;;;;5074659;28;20051;-76
2023/01/09 11:32:33;;;;;;;3.55;0.90;;;18.60;88.00;;;;;;5069198;28;20061;-77
2023/01/09 11:34:59;;;;;;;4.38;1.13;;;19.70;87.50;;;;;;5066465;28;20488;-76
2023/01/09 11:37:30;;;;;;;2.38;0.82;;;20.30;86.80;;;;;;5076261;28;20048;-76
2023/01/09 11:40:00;;;;;;;2.65;0.95;;;19.10;85.30;;;;;;5072968;28;20456;-76
2023/01/09 11:45:18;;;;;;;3.75;1.10;;;19.20;86.00;;;;;;5061818;28;20070;-73
2023/01/09 11:47:45;;;;;;;3.38;0.70;;;19.20;86.10;;;;;;5065931;28;20035;-73
2023/01/09 11:50:17;;;;;;;4.22;1.38;;;18.90;86.10;;;;;;5072092;28;20053;-74
2023/01/09 11:52:43;;;;;;;6.63;0.90;;;18.70;86.20;;;;;;5069500;28;20446;-73
2023/01/09 11:55:14;;;;;;;4.47;1.13;;;18.70;86.10;;;;;;5069920;28;20127;-72
2023/01/09 11:57:41;;;;;;;2.78;0.88;;;19.50;85.10;;;;;;5077921;28;20050;-73
2023/01/09 12:00:25;;;;;;;7.40;0.95;;;19.00;85.70;;;;;;5072085;28;20577;-73
2023/01/09 12:03:21;;;;;;;3.10;0.82;;;19.50;85.40;;;;;;5048829;28;20040;-74
2023/01/09 12:05:50;;;;;;;5.15;1.75;;;19.60;85.40;;;;;;5073688;28;20057;-73
2023/01/09 12:08:26;;;;;;;2.65;1.23;;;20.30;84.30;;;;;;5073757;28;20047;-73
2023/01/09 12:11:32;;;;;;;3.50;0.93;;;19.30;84.60;;;;;;5059473;28;20060;-73
2023/01/09 12:14:33;;;;;;;2.70;0.93;;;19.80;83.70;;;;;;5081938;28;20059;-73
2023/01/09 12:17:09;;;;;;;4.95;0.90;;;19.80;84.30;;;;;;5062442;28;20101;-73
2023/01/09 12:19:59;;;;;;;3.50;1.15;;;19.70;83.50;;;;;;5067667;28;20036;-73
2023/01/09 12:23:01;;;;;;;5.57;1.27;;;19.90;83.70;;;;;;5066140;28;20055;-74
2023/01/09 12:25:32;;;;;;;3.55;0.93;;;19.80;83.00;;;;;;5086717;28;20056;-73
2023/01/09 12:28:33;;;;;;;4.78;1.15;;;19.90;83.30;;;;;;5072802;28;20036;-73
2023/01/09 12:31:25;;;;;;;5.63;1.15;;;19.90;83.40;;;;;;5078102;28;20036;-73
2023/01/09 12:34:30;;;;;;;4.10;1.50;;;19.70;83.10;;;;;;5075271;28;20024;-73
2023/01/09 12:37:19;;;;;;;6.32;1.17;;;20.00;83.50;;;;;;5072482;28;20032;-73
2023/01/09 12:40:09;;;;;;;3.58;1.38;;;20.00;83.00;;;;;;5069324;28;20408;-72
2023/01/09 12:43:18;;;;;;;3.08;1.27;;;19.80;82.60;;;;;;5071342;28;20067;-74
2023/01/09 12:46:11;;;;;;;5.50;0.93;;;19.90;82.40;;;;;;5039632;28;20049;-74
2023/01/09 12:48:59;;;;;;;2.70;0.77;;;20.60;81.10;;;;;;5070771;28;20066;-74
2023/01/09 12:51:38;;;;;;;4.35;0.90;;;20.80;80.90;;;;;;5068194;28;20044;-74
2023/01/09 12:54:23;;;;;;;1.98;0.70;;;20.00;80.80;;;;;;5073021;28;20377;-74
2023/01/09 12:56:55;;;;;;;8.68;1.30;;;19.90;81.60;;;;;;5088016;28;20050;-75
2023/01/09 12:59:42;;;;;;;3.30;1.02;;;19.50;81.50;;;;;;5076808;28;20041;-74
2023/01/09 13:02:16;;;;;;;2.95;0.85;;;19.70;81.10;;;;;;5075357;28;20102;-74
2023/01/09 13:05:17;;;;;;;2.50;0.80;;;20.00;80.50;;;;;;5078291;28;20036;-75
2023/01/09 13:08:07;;;;;;;2.40;0.75;;;19.50;80.80;;;;;;5066033;28;20123;-73
2023/01/09 13:10:51;;;;;;;1.83;0.57;;;20.40;80.50;;;;;;5066431;28;20062;-74
2023/01/09 13:13:29;;;;;;;3.30;0.98;;;19.70;80.40;;;;;;5077735;28;20075;-74
2023/01/09 13:16:05;;;;;;;3.28;1.40;;;19.70;80.60;;;;;;5070479;28;20085;-73
2023/01/09 13:19:05;;;;;;;3.38;0.95;;;20.10;80.60;;;;;;5069809;28;21545;-74
2023/01/09 13:21:31;;;;;;;3.25;0.90;;;20.20;80.50;;;;;;5063904;28;20043;-74
2023/01/09 13:24:34;;;;;;;4.28;1.08;;;20.10;80.80;;;;;;5079639;28;20058;-74